Time;durP1;ratioP1;P1;durP2;ratioP2;P2;SDS_P1;SDS_P2;PMS_P1;PMS_P2;Temp;Humidity;BMP_temperature;BMP_pressure;BME280_temperature;BME280_humidity;BME280_pressure;Samples;Min_cycle;Max_cycle;Signal;HPM_P1;HPM_P2
2022/01/02 00:01:36;;;;;;;9.63;4.97;;;11.50;99.90;;;;;;6215821;23;20334;-88
2022/01/02 00:04:03;;;;;;;8.43;4.97;;;11.50;99.90;;;;;;6215499;23;20023;-88
2022/01/02 00:06:31;;;;;;;13.43;5.70;;;;;;;;;;6190447;23;20509;-88
2022/01/02 00:09:04;;;;;;;10.18;5.40;;;11.50;99.90;;;;;;6189976;23;20453;-88
2022/01/02 00:11:30;;;;;;;15.10;5.60;;;;;;;;;;6215047;23;20075;-88
2022/01/02 00:14:00;;;;;;;10.43;5.15;;;;;;;;;;6190719;23;20028;-88
2022/01/02 00:16:27;;;;;;;11.32;5.43;;;;;;;;;;6190705;23;20048;-88
2022/01/02 00:19:05;;;;;;;14.98;6.22;;;;;;;;;;6190455;23;20071;-87
2022/01/02 00:21:38;;;;;;;12.93;5.70;;;;;;;;;;6215193;23;20048;-87
2022/01/02 00:24:06;;;;;;;7.82;5.40;;;;;;;;;;6191162;23;20104;-88
2022/01/02 00:26:37;;;;;;;7.30;5.05;;;;;;;;;;6190426;23;20023;-88
2022/01/02 00:29:04;;;;;;;9.20;5.57;;;;;;;;;;6191249;23;20401;-87
2022/01/02 00:31:31;;;;;;;9.40;5.45;;;;;;;;;;6215245;23;20035;-88
2022/01/02 00:33:58;;;;;;;8.75;5.50;;;;;;;;;;6215239;23;20024;-88
2022/01/02 00:36:24;;;;;;;8.23;5.28;;;;;;;;;;6190595;23;20020;-88
2022/01/02 00:38:50;;;;;;;10.50;5.90;;;;;;;;;;6190347;23;20023;-87
2022/01/02 00:41:23;;;;;;;13.13;6.07;;;11.50;99.90;;;;;;6192040;23;20020;-88
2022/01/02 00:43:55;;;;;;;7.40;5.53;;;;;;;;;;6192804;23;20017;-89
2022/01/02 00:46:21;;;;;;;10.85;5.72;;;;;;;;;;6193749;23;20035;-95
2022/01/02 00:48:48;;;;;;;14.05;7.10;;;;;;;;;;6192484;23;20028;-91
2022/01/02 00:51:17;;;;;;;10.05;5.57;;;;;;;;;;6218148;23;20024;-96
2022/01/02 00:53:47;;;;;;;14.75;6.80;;;11.50;99.90;;;;;;6191946;23;20047;-94
2022/01/02 00:56:17;;;;;;;8.10;5.47;;;11.40;99.90;;;;;;6216818;23;20016;-94
2022/01/02 00:58:53;;;;;;;9.77;5.63;;;11.40;99.90;;;;;;6191640;23;20016;-96
2022/01/02 01:01:40;;;;;;;9.68;5.38;;;;;;;;;;6216330;23;20031;-90
2022/01/02 01:04:07;;;;;;;11.40;5.70;;;;;;;;;;6191924;23;20465;-94
2022/01/02 01:06:33;;;;;;;8.00;5.78;;;;;;;;;;6191260;23;20035;-93
2022/01/02 01:09:01;;;;;;;15.18;5.90;;;;;;;;;;6192256;23;20013;-92
2022/01/02 01:11:28;;;;;;;13.10;6.18;;;;;;;;;;6193753;23;20500;-93
2022/01/02 01:13:55;;;;;;;14.00;5.93;;;;;;;;;;6194751;23;20017;-89
2022/01/02 01:16:21;;;;;;;10.40;5.90;;;;;;;;;;6219654;23;20059;-94
2022/01/02 01:18:48;;;;;;;13.93;6.38;;;;;;;;;;6219054;23;20021;-94
2022/01/02 01:21:14;;;;;;;9.80;6.78;;;;;;;;;;6194327;23;20095;-91
2022/01/02 01:23:41;;;;;;;11.73;5.80;;;;;;;;;;6191703;23;20024;-88
2022/01/02 01:26:09;;;;;;;10.52;6.53;;;;;;;;;;6191639;23;20398;-88
2022/01/02 01:28:35;;;;;;;10.00;5.93;;;;;;;;;;6216999;23;20023;-89
2022/01/02 01:31:01;;;;;;;13.60;6.40;;;;;;;;;;6216558;23;20098;-88
2022/01/02 01:33:27;;;;;;;9.45;6.28;;;;;;;;;;6192223;23;20016;-88
2022/01/02 01:35:53;;;;;;;13.68;6.38;;;;;;;;;;6192317;23;20035;-88
2022/01/02 01:38:19;;;;;;;9.63;6.47;;;;;;;;;;6217192;23;20462;-88
2022/01/02 01:41:01;;;;;;;9.60;6.47;;;11.30;99.90;;;;;;6191781;23;20350;-89
2022/01/02 01:43:38;;;;;;;16.00;6.47;;;;;;;;;;6192087;23;20013;-88
2022/01/02 01:46:05;;;;;;;13.27;7.05;;;;;;;;;;6216815;23;20476;-88
2022/01/02 01:48:31;;;;;;;11.23;6.30;;;;;;;;;;6192334;23;20056;-88
2022/01/02 01:50:57;;;;;;;16.13;6.85;;;;;;;;;;6191876;23;20173;-88
2022/01/02 01:53:23;;;;;;;13.27;6.55;;;;;;;;;;6217024;23;20098;-88
2022/01/02 01:55:49;;;;;;;14.55;7.25;;;;;;;;;;6191165;23;20016;-88
2022/01/02 01:58:15;;;;;;;12.98;6.93;;;;;;;;;;6191509;23;20013;-89
2022/01/02 02:00:42;;;;;;;19.60;7.18;;;11.20;99.90;;;;;;6216574;23;20028;-89
2022/01/02 02:03:08;;;;;;;16.17;7.30;;;;;;;;;;6191736;23;20058;-88
2022/01/02 02:05:34;;;;;;;12.38;5.97;;;;;;;;;;6192136;23;20059;-88
2022/01/02 02:08:00;;;;;;;10.68;7.30;;;;;;;;;;6192795;23;20016;-88
2022/01/02 02:10:33;;;;;;;15.15;7.82;;;11.40;99.90;;;;;;6191441;23;20024;-90
2022/01/02 02:13:01;;;;;;;16.37;8.50;;;;;;;;;;6217145;23;20071;-89
2022/01/02 02:15:27;;;;;;;13.52;6.70;;;;;;;;;;6216743;23;20275;-90
2022/01/02 02:17:53;;;;;;;9.80;5.43;;;;;;;;;;6192922;23;20023;-89
2022/01/02 02:20:36;;;;;;;14.48;7.43;;;11.40;99.90;;;;;;6191254;23;20024;-89
2022/01/02 02:23:02;;;;;;;13.40;7.25;;;;;;;;;;6191003;23;20095;-87
2022/01/02 02:25:31;;;;;;;14.98;7.78;;;11.40;99.90;;;;;;6191394;23;20013;-87
2022/01/02 02:27:58;;;;;;;19.10;8.15;;;;;;;;;;6191658;23;20115;-88
2022/01/02 02:30:25;;;;;;;15.40;7.45;;;;;;;;;;6191474;23;20104;-87
2022/01/02 02:32:53;;;;;;;9.88;6.40;;;;;;;;;;6191699;23;20013;-88
2022/01/02 02:35:19;;;;;;;11.30;7.38;;;;;;;;;;6191636;23;20043;-90
2022/01/02 02:37:46;;;;;;;11.48;7.95;;;;;;;;;;6192662;23;20019;-89
2022/01/02 02:40:14;;;;;;;15.77;8.40;;;;;;;;;;6217577;23;20457;-90
2022/01/02 02:50:47;;;;;;;14.52;8.82;;;;;;;;;;6218362;23;20020;-92
2022/01/02 02:53:17;;;;;;;15.38;7.53;;;;;;;;;;6217583;23;20099;-92
2022/01/02 02:55:47;;;;;;;13.95;7.82;;;;;;;;;;6216674;23;20017;-88
2022/01/02 03:00:57;;;;;;;;;;;11.20;99.90;;;;;;6223927;23;20016;-88
2022/01/02 03:03:23;;;;;;;12.40;7.43;;;;;;;;;;6250248;23;19950;-89
2022/01/02 03:05:49;;;;;;;21.05;8.52;;;;;;;;;;6198082;23;20012;-94
2022/01/02 03:08:15;;;;;;;21.25;8.95;;;;;;;;;;6198002;23;20023;-91
2022/01/02 03:10:41;;;;;;;16.38;9.38;;;;;;;;;;6222212;23;20016;-93
2022/01/02 03:13:07;;;;;;;20.80;9.02;;;;;;;;;;6222965;23;20012;-93
2022/01/02 03:15:33;;;;;;;11.20;8.10;;;;;;;;;;6222845;23;20027;-91
2022/01/02 03:17:59;;;;;;;22.20;8.45;;;;;;;;;;6221964;23;20028;-92
2022/01/02 03:20:25;;;;;;;17.73;9.60;;;;;;;;;;6196791;23;20070;-94
2022/01/02 03:22:51;;;;;;;14.45;9.00;;;;;;;;;;6197429;23;20019;-93
2022/01/02 03:25:18;;;;;;;15.23;7.90;;;;;;;;;;6196174;23;20059;-92
2022/01/02 03:27:44;;;;;;;12.75;8.40;;;;;;;;;;6248936;23;20419;-92
2022/01/02 03:30:11;;;;;;;17.88;9.60;;;;;;;;;;6197019;23;20024;-91
2022/01/02 03:32:37;;;;;;;17.42;8.82;;;;;;;;;;6247971;22;20031;-92
2022/01/02 03:35:04;;;;;;;16.65;9.07;;;;;;;;;;6196170;23;20018;-93
2022/01/02 03:37:33;;;;;;;16.50;9.32;;;;;;;;;;6197700;23;20020;-92
2022/01/02 03:39:59;;;;;;;16.52;10.18;;;;;;;;;;6221398;23;20066;-93
2022/01/02 03:42:25;;;;;;;16.10;8.95;;;;;;;;;;6248180;23;20012;-93
2022/01/02 03:44:51;;;;;;;15.30;9.50;;;;;;;;;;6196341;23;20392;-93
2022/01/02 03:47:18;;;;;;;16.10;9.73;;;;;;;;;;6196496;23;20047;-94
2022/01/02 03:49:44;;;;;;;17.15;9.60;;;;;;;;;;6196768;23;20012;-92
2022/01/02 03:52:10;;;;;;;15.38;9.55;;;;;;;;;;6249046;23;20070;-93
2022/01/02 03:54:36;;;;;;;16.33;10.80;;;;;;;;;;6248884;23;20054;-95
2022/01/02 03:57:02;;;;;;;19.80;10.23;;;;;;;;;;6196888;23;20020;-94
2022/01/02 03:59:28;;;;;;;13.50;9.00;;;;;;;;;;6196613;23;20016;-92
2022/01/02 04:01:54;;;;;;;15.40;8.63;;;;;;;;;;6221804;23;20024;-93
2022/01/02 04:04:20;;;;;;;17.95;9.90;;;;;;;;;;6196708;23;20047;-94
2022/01/02 04:06:46;;;;;;;16.35;9.30;;;;;;;;;;6222158;23;20024;-94
2022/01/02 04:09:12;;;;;;;15.48;9.52;;;;;;;;;;6222427;23;20019;-92
2022/01/02 04:11:38;;;;;;;17.13;10.40;;;;;;;;;;6221930;23;20031;-94
2022/01/02 04:14:04;;;;;;;23.23;10.00;;;;;;;;;;6221910;23;20016;-94
2022/01/02 04:16:30;;;;;;;14.35;8.38;;;;;;;;;;6221690;23;20027;-96
2022/01/02 04:18:56;;;;;;;16.17;9.60;;;;;;;;;;6196097;23;20016;-93
2022/01/02 04:21:22;;;;;;;13.38;8.65;;;;;;;;;;6196924;23;20023;-94
2022/01/02 04:23:48;;;;;;;16.52;8.40;;;;;;;;;;6222828;23;20048;-94
2022/01/02 04:26:14;;;;;;;19.40;8.90;;;;;;;;;;6224807;23;20020;-95
2022/01/02 04:28:41;;;;;;;10.98;9.40;;;;;;;;;;6222672;23;20019;-93
2022/01/02 04:31:09;;;;;;;15.95;8.68;;;;;;;;;;6221491;23;20035;-93
2022/01/02 04:33:36;;;;;;;13.05;8.48;;;;;;;;;;6196784;23;20016;-95
2022/01/02 04:36:02;;;;;;;16.85;9.18;;;;;;;;;;6220972;23;20020;-92
2022/01/02 04:38:28;;;;;;;14.77;8.88;;;;;;;;;;6221483;23;20012;-93
2022/01/02 04:40:54;;;;;;;16.25;10.43;;;;;;;;;;6196555;23;20018;-93
2022/01/02 04:43:20;;;;;;;17.40;8.38;;;;;;;;;;6197347;23;20020;-93
2022/01/02 04:45:46;;;;;;;21.67;9.30;;;;;;;;;;6196045;23;20018;-92
2022/01/02 04:48:12;;;;;;;15.43;8.18;;;;;;;;;;6222198;23;20043;-96
2022/01/02 04:50:39;;;;;;;14.30;8.90;;;;;;;;;;6196010;23;20442;-94
2022/01/02 04:53:05;;;;;;;18.10;8.85;;;;;;;;;;6221593;23;20370;-94
2022/01/02 04:55:31;;;;;;;10.15;8.15;;;;;;;;;;6221141;23;20147;-94
2022/01/02 04:57:57;;;;;;;12.50;8.32;;;;;;;;;;6247856;23;20087;-94
2022/01/02 05:00:23;;;;;;;18.05;9.00;;;;;;;;;;6216150;23;20450;-96
2022/01/02 05:02:49;;;;;;;15.05;8.75;;;;;;;;;;6216774;23;20028;-91
2022/01/02 05:05:16;;;;;;;15.88;9.60;;;;;;;;;;6215606;23;20066;-88
2022/01/02 05:07:42;;;;;;;16.58;9.48;;;;;;;;;;6215669;23;20043;-91
2022/01/02 05:10:09;;;;;;;17.58;10.02;;;;;;;;;;6216833;23;20025;-90
2022/01/02 05:12:35;;;;;;;17.55;9.68;;;;;;;;;;6215250;23;20017;-91
2022/01/02 05:15:01;;;;;;;18.48;9.40;;;;;;;;;;6190824;23;20087;-90
2022/01/02 05:17:27;;;;;;;24.40;8.70;;;;;;;;;;6215490;23;20070;-90
2022/01/02 05:19:53;;;;;;;19.27;9.35;;;;;;;;;;6189963;23;20338;-91
2022/01/02 05:22:19;;;;;;;19.65;9.05;;;;;;;;;;6215191;23;20020;-90
2022/01/02 05:24:45;;;;;;;17.10;8.52;;;;;;;;;;6190328;23;20016;-89
2022/01/02 05:27:12;;;;;;;20.85;8.82;;;;;;;;;;6190151;23;20096;-90
2022/01/02 05:29:38;;;;;;;16.90;8.23;;;;;;;;;;6215736;23;20013;-91
2022/01/02 05:32:04;;;;;;;18.67;8.98;;;;;;;;;;6189931;23;20017;-87
2022/01/02 05:34:30;;;;;;;18.92;8.25;;;;;;;;;;6190474;23;20020;-87
2022/01/02 05:36:56;;;;;;;21.05;8.73;;;;;;;;;;6190182;23;20535;-86
2022/01/02 05:39:22;;;;;;;23.60;8.27;;;;;;;;;;6215251;23;20016;-86
2022/01/02 05:41:51;;;;;;;23.92;8.75;;;11.20;99.90;;;;;;6190586;23;20021;-93
2022/01/02 05:44:17;;;;;;;13.63;7.10;;;;;;;;;;6190862;23;20031;-92
2022/01/02 05:46:43;;;;;;;15.32;8.35;;;;;;;;;;6191422;23;20035;-92
2022/01/02 05:49:10;;;;;;;19.42;8.30;;;;;;;;;;6191150;23;20017;-90
2022/01/02 05:51:36;;;;;;;13.40;7.88;;;;;;;;;;6215661;23;20024;-90
2022/01/02 05:54:03;;;;;;;11.77;5.97;;;;;;;;;;6190003;23;20016;-88
2022/01/02 05:56:29;;;;;;;13.15;6.25;;;;;;;;;;6191401;23;20327;-88
2022/01/02 05:58:55;;;;;;;15.40;5.43;;;;;;;;;;6192340;23;20016;-90
2022/01/02 06:01:21;;;;;;;14.02;7.05;;;;;;;;;;6217444;23;20020;-92
2022/01/02 06:03:47;;;;;;;16.08;6.93;;;;;;;;;;6192332;23;20028;-88
2022/01/02 06:06:13;;;;;;;19.52;6.05;;;;;;;;;;6217750;23;20016;-90
2022/01/02 06:08:40;;;;;;;19.95;6.22;;;;;;;;;;6192609;23;20021;-90
2022/01/02 06:11:06;;;;;;;20.02;6.22;;;;;;;;;;6217623;23;20393;-95
2022/01/02 06:13:32;;;;;;;12.07;6.72;;;;;;;;;;6216842;23;20355;-89
2022/01/02 06:15:58;;;;;;;16.48;6.35;;;;;;;;;;6192775;23;20027;-91
2022/01/02 06:18:24;;;;;;;12.77;5.20;;;;;;;;;;6217553;23;20017;-93
2022/01/02 06:20:50;;;;;;;13.23;6.28;;;;;;;;;;6220281;23;20066;-94
2022/01/02 06:23:16;;;;;;;10.20;6.22;;;;;;;;;;6218978;23;20016;-94
2022/01/02 06:25:44;;;;;;;13.45;5.78;;;11.50;99.90;;;;;;6217611;23;20390;-92
2022/01/02 06:28:10;;;;;;;16.17;5.53;;;;;;;;;;6218878;23;20023;-92
2022/01/02 06:30:36;;;;;;;11.02;5.53;;;;;;;;;;6217393;23;20048;-92
2022/01/02 06:33:03;;;;;;;13.02;5.25;;;;;;;;;;6217175;23;20017;-95
2022/01/02 06:35:32;;;;;;;12.05;5.60;;;11.70;99.90;;;;;;6192196;23;20021;-90
2022/01/02 06:37:58;;;;;;;10.68;5.03;;;;;;;;;;6219071;23;20016;-93
2022/01/02 06:40:25;;;;;;;10.45;5.10;;;;;;;;;;6217404;23;20020;-94
2022/01/02 06:42:52;;;;;;;11.55;5.93;;;;;;;;;;6216423;23;20028;-93
2022/01/02 06:45:18;;;;;;;10.68;4.95;;;;;;;;;;6192445;23;20016;-91
2022/01/02 06:47:44;;;;;;;18.15;6.05;;;;;;;;;;6216439;23;20021;-92
2022/01/02 06:50:14;;;;;;;11.50;6.45;;;;;;;;;;6191241;23;20028;-91
2022/01/02 06:52:40;;;;;;;10.50;5.63;;;;;;;;;;6191390;23;20023;-92
2022/01/02 06:55:06;;;;;;;13.30;5.70;;;;;;;;;;6215676;23;20016;-92
2022/01/02 06:57:33;;;;;;;10.40;5.15;;;;;;;;;;6215950;23;20354;-91
2022/01/02 06:59:59;;;;;;;9.15;4.70;;;;;;;;;;6190897;23;20020;-91
2022/01/02 07:02:25;;;;;;;7.70;3.78;;;;;;;;;;6191290;23;20017;-92
2022/01/02 07:04:51;;;;;;;9.38;4.45;;;;;;;;;;6191931;23;20024;-95
2022/01/02 07:07:17;;;;;;;11.10;4.88;;;;;;;;;;6191950;23;20114;-94
2022/01/02 07:09:43;;;;;;;14.68;4.57;;;;;;;;;;6192135;23;20442;-93
2022/01/02 07:12:09;;;;;;;19.23;5.18;;;;;;;;;;6215812;23;20021;-92
2022/01/02 07:14:35;;;;;;;6.78;4.50;;;;;;;;;;6215792;23;20020;-91
2022/01/02 07:17:01;;;;;;;10.45;4.05;;;;;;;;;;6215604;23;20323;-90
2022/01/02 07:19:27;;;;;;;9.88;4.15;;;;;;;;;;6190602;23;20016;-89
2022/01/02 07:21:53;;;;;;;14.45;4.32;;;;;;;;;;6215728;23;20016;-90
2022/01/02 07:24:20;;;;;;;9.65;4.55;;;;;;;;;;6190598;23;20095;-90
2022/01/02 07:26:46;;;;;;;9.15;4.00;;;;;;;;;;6190633;23;20094;-90
2022/01/02 07:29:15;;;;;;;5.60;3.92;;;;;;;;;;6190888;23;20051;-91
2022/01/02 07:31:41;;;;;;;6.95;3.78;;;;;;;;;;6190699;23;20076;-88
2022/01/02 07:34:07;;;;;;;12.13;4.00;;;;;;;;;;6190437;23;20016;-90
2022/01/02 07:36:33;;;;;;;7.13;3.70;;;;;;;;;;6190537;23;20080;-90
2022/01/02 07:38:59;;;;;;;7.60;3.28;;;;;;;;;;6190174;23;20016;-89
2022/01/02 07:41:26;;;;;;;7.47;3.90;;;;;;;;;;6190300;23;20075;-90
2022/01/02 07:43:53;;;;;;;6.43;3.42;;;;;;;;;;6190649;23;20028;-89
2022/01/02 07:46:19;;;;;;;7.82;3.78;;;;;;;;;;6216015;23;20016;-89
2022/01/02 07:48:45;;;;;;;14.35;4.95;;;;;;;;;;6190711;23;20456;-88
2022/01/02 07:51:12;;;;;;;9.57;4.18;;;;;;;;;;6190592;23;20044;-91
2022/01/02 07:53:38;;;;;;;10.50;3.22;;;;;;;;;;6191048;23;20070;-88
2022/01/02 07:56:04;;;;;;;13.35;3.95;;;;;;;;;;6217547;23;20009;-89
2022/01/02 07:58:30;;;;;;;10.50;4.15;;;;;;;;;;6215362;23;20024;-89
2022/01/02 08:00:56;;;;;;;8.32;4.55;;;;;;;;;;6217993;23;20446;-91
2022/01/02 08:03:22;;;;;;;5.25;2.75;;;;;;;;;;6218014;23;20021;-92
2022/01/02 08:05:48;;;;;;;4.30;3.22;;;;;;;;;;6216857;23;20017;-93
2022/01/02 08:08:14;;;;;;;8.30;4.88;;;;;;;;;;6216685;23;20017;-93
2022/01/02 08:10:40;;;;;;;11.07;4.25;;;;;;;;;;6218154;23;20024;-93
2022/01/02 08:13:06;;;;;;;10.15;3.55;;;;;;;;;;6218989;23;20027;-92
2022/01/02 08:15:32;;;;;;;10.20;3.92;;;;;;;;;;6218372;23;20012;-95
2022/01/02 08:18:02;;;;;;;8.25;4.10;;;;;;;;;;6218104;23;20017;-94
2022/01/02 08:20:28;;;;;;;11.02;4.85;;;;;;;;;;6216906;23;20024;-92
2022/01/02 08:22:56;;;;;;;10.15;4.40;;;;;;;;;;6217184;23;20016;-91
2022/01/02 08:25:22;;;;;;;10.95;4.40;;;;;;;;;;6191214;23;20017;-93
2022/01/02 08:27:48;;;;;;;6.05;3.90;;;;;;;;;;6216413;23;20362;-93
2022/01/02 08:30:14;;;;;;;4.43;3.40;;;;;;;;;;6191011;23;20039;-93
2022/01/02 08:32:40;;;;;;;9.45;4.82;;;;;;;;;;6190907;23;20435;-89
2022/01/02 08:35:07;;;;;;;6.18;3.80;;;;;;;;;;6192021;23;20021;-92
2022/01/02 08:37:33;;;;;;;9.00;4.35;;;;;;;;;;6190876;23;20477;-95
2022/01/02 08:39:59;;;;;;;9.60;4.57;;;;;;;;;;6190240;23;20017;-90
2022/01/02 08:42:25;;;;;;;7.85;4.38;;;;;;;;;;6190758;23;20016;-93
2022/01/02 08:44:51;;;;;;;5.85;4.20;;;;;;;;;;6190575;23;20023;-90
2022/01/02 08:47:17;;;;;;;10.13;4.65;;;;;;;;;;6215250;23;20042;-88
2022/01/02 08:49:44;;;;;;;5.60;4.53;;;;;;;;;;6190587;23;20342;-88
2022/01/02 08:52:10;;;;;;;9.85;4.32;;;;;;;;;;6191163;23;20090;-89
2022/01/02 08:54:38;;;;;;;14.00;4.95;;;;;;;;;;6190320;23;20012;-86
2022/01/02 08:57:04;;;;;;;5.35;4.07;;;;;;;;;;6215569;23;20020;-88
2022/01/02 08:59:30;;;;;;;5.53;4.00;;;;;;;;;;6189504;23;20020;-87
2022/01/02 09:01:57;;;;;;;6.80;3.90;;;;;;;;;;6215561;23;20021;-88
2022/01/02 09:04:23;;;;;;;5.15;3.70;;;;;;;;;;6191338;23;20013;-88
2022/01/02 09:06:49;;;;;;;5.53;3.67;;;;;;;;;;6215545;23;20480;-88
2022/01/02 09:09:15;;;;;;;7.75;3.90;;;;;;;;;;6190214;23;20341;-90
2022/01/02 09:11:41;;;;;;;5.53;3.20;;;;;;;;;;6215183;23;20021;-87
2022/01/02 09:14:07;;;;;;;5.95;3.58;;;;;;;;;;6190210;23;20017;-89
2022/01/02 09:16:34;;;;;;;9.25;5.35;;;;;;;;;;6215208;23;20028;-89
2022/01/02 09:19:00;;;;;;;5.78;4.65;;;;;;;;;;6190616;23;20366;-88
2022/01/02 09:21:26;;;;;;;11.23;6.88;;;;;;;;;;6190184;23;20021;-88
2022/01/02 09:23:52;;;;;;;7.00;5.05;;;;;;;;;;6215070;23;20022;-87
2022/01/02 09:26:18;;;;;;;9.93;5.43;;;;;;;;;;6215666;23;20051;-87
2022/01/02 09:28:44;;;;;;;7.28;5.03;;;;;;;;;;6191883;23;20016;-87
2022/01/02 09:31:10;;;;;;;8.00;4.60;;;;;;;;;;6217506;23;20021;-88
2022/01/02 09:33:36;;;;;;;6.50;4.53;;;;;;;;;;6218816;23;20341;-87
2022/01/02 09:36:02;;;;;;;13.57;5.13;;;;;;;;;;6192463;23;20033;-89
2022/01/02 09:38:28;;;;;;;6.40;4.60;;;;;;;;;;6192201;23;20458;-89
2022/01/02 09:40:54;;;;;;;10.15;5.47;;;;;;;;;;6217116;23;20021;-88
2022/01/02 09:43:20;;;;;;;7.50;5.05;;;;;;;;;;6217206;23;20048;-89
2022/01/02 09:45:48;;;;;;;6.55;4.50;;;;;;;;;;6192047;23;20021;-88
2022/01/02 09:48:14;;;;;;;10.80;5.45;;;;;;;;;;6192048;23;20023;-88
2022/01/02 09:50:41;;;;;;;8.48;5.40;;;;;;;;;;6217199;23;20024;-89
2022/01/02 09:53:07;;;;;;;7.97;5.10;;;;;;;;;;6218586;23;20020;-88
2022/01/02 09:55:34;;;;;;;6.22;5.10;;;;;;;;;;6217345;23;20012;-89
2022/01/02 09:58:00;;;;;;;11.45;5.13;;;;;;;;;;6191520;23;20350;-88
2022/01/02 10:00:27;;;;;;;7.20;4.55;;;;;;;;;;6217426;23;20024;-88
2022/01/02 10:03:04;;;;;;;7.88;5.78;;;;;;;;;;6191936;23;20078;-88
2022/01/02 10:05:48;;;;;;;11.20;5.20;;;;;;;;;;6218907;23;20043;-87
2022/01/02 10:08:30;;;;;;;10.05;5.20;;;;;;;;;;6217589;23;20067;-88
2022/01/02 10:10:59;;;;;;;6.75;4.82;;;;;;;;;;6216927;23;20076;-88
2022/01/02 10:13:46;;;;;;;5.40;3.67;;;;;;;;;;6218961;23;20035;-88
2022/01/02 10:16:19;;;;;;;7.13;4.90;;;;;;;;;;6217128;23;20017;-92
2022/01/02 10:18:45;;;;;;;7.80;5.50;;;;;;;;;;6217167;23;20017;-93
2022/01/02 10:21:11;;;;;;;13.68;5.50;;;;;;;;;;6217804;23;20031;-94
2022/01/02 10:23:37;;;;;;;11.35;5.75;;;;;;;;;;6192975;23;20013;-95
2022/01/02 10:26:04;;;;;;;11.77;6.72;;;;;;;;;;6193358;23;20020;-94
2022/01/02 10:28:30;;;;;;;11.48;7.75;;;;;;;;;;6218592;23;20026;-94
2022/01/02 10:31:04;;;;;;;7.10;5.43;;;;;;;;;;6218855;23;20027;-93
2022/01/02 10:33:48;;;;;;;;;;;11.30;99.90;;;;;;6219180;23;20017;-93
2022/01/02 10:36:14;;;;;;;10.38;6.10;;;;;;;;;;6217980;23;19919;-90
2022/01/02 10:38:58;;;;;;;13.70;6.60;;;;;;;;;;6217631;23;20021;-92
2022/01/02 10:41:33;;;;;;;14.38;6.60;;;;;;;;;;6192714;23;20020;-95
2022/01/02 10:44:18;;;;;;;21.30;7.20;;;;;;;;;;6193982;23;20024;-95
2022/01/02 10:47:24;;;;;;;14.50;7.18;;;11.40;99.90;;;;;;6217674;23;20048;-93
2022/01/02 10:50:03;;;;;;;16.30;7.07;;;;;;;;;;6192436;23;20453;-95
2022/01/02 10:52:45;;;;;;;13.73;6.35;;;;;;;;;;6192447;23;20020;-94
2022/01/02 10:55:17;;;;;;;14.38;5.97;;;;;;;;;;6192353;23;20016;-94
2022/01/02 10:57:46;;;;;;;11.82;5.97;;;;;;;;;;6217675;23;20017;-95
2022/01/02 11:00:12;;;;;;;14.35;5.75;;;;;;;;;;6192976;23;20024;-94
2022/01/02 11:02:39;;;;;;;13.95;5.88;;;;;;;;;;6218150;23;20020;-93
2022/01/02 11:05:07;;;;;;;19.20;5.13;;;;;;;;;;6218091;23;20013;-93
2022/01/02 11:07:49;;;;;;;12.98;5.30;;;11.50;99.90;;;;;;6217429;23;20021;-93
2022/01/02 11:10:17;;;;;;;13.70;4.93;;;;;;;;;;6218663;23;20044;-91
2022/01/02 11:12:44;;;;;;;14.63;4.25;;;;;;;;;;6216477;23;20021;-91
2022/01/02 11:15:11;;;;;;;18.52;5.88;;;;;;;;;;6192465;23;20078;-90
2022/01/02 11:17:38;;;;;;;15.88;5.43;;;;;;;;;;6218071;23;20083;-90
2022/01/02 11:20:09;;;;;;;12.43;4.25;;;;;;;;;;6215891;23;20016;-89
2022/01/02 11:22:39;;;;;;;17.60;4.95;;;;;;;;;;6190461;23;20095;-88
2022/01/02 11:25:08;;;;;;;18.17;6.00;;;;;;;;;;6191871;23;20504;-89
2022/01/02 11:27:54;;;;;;;15.02;5.45;;;11.40;99.90;;;;;;6215930;23;20017;-89
2022/01/02 11:30:33;;;;;;;13.55;3.95;;;;;;;;;;6215368;23;20050;-90
2022/01/02 11:33:02;;;;;;;9.95;4.75;;;;;;;;;;6215881;23;20382;-90
2022/01/02 11:35:31;;;;;;;9.98;4.82;;;11.60;99.90;;;;;;6190994;23;20058;-89
2022/01/02 11:38:01;;;;;;;13.40;4.50;;;;;;;;;;6190699;23;20016;-89
2022/01/02 11:40:44;;;;;;;10.63;4.88;;;11.50;99.90;;;;;;6215569;23;20027;-89
2022/01/02 11:43:11;;;;;;;12.40;4.17;;;;;;;;;;6191576;23;20021;-89
2022/01/02 11:45:40;;;;;;;9.50;4.30;;;;;;;;;;6191579;23;20450;-89
2022/01/02 11:48:26;;;;;;;11.95;4.65;;;11.70;99.90;;;;;;6191931;23;20021;-89
2022/01/02 11:50:53;;;;;;;11.15;4.45;;;;;;;;;;6190399;23;20052;-89
2022/01/02 11:53:24;;;;;;;13.30;4.75;;;;;;;;;;6215576;23;20024;-90
2022/01/02 11:55:50;;;;;;;19.77;4.15;;;;;;;;;;6190874;23;20012;-88
2022/01/02 11:58:55;;;;;;;12.05;4.43;;;11.50;99.90;;;;;;6193605;23;20016;-90
2022/01/02 12:01:49;;;;;;;5.80;3.38;;;11.50;99.90;;;;;;6126368;23;20108;-90
2022/01/02 12:04:15;;;;;;;10.65;4.00;;;;;;;;;;6074613;23;20093;-91
2022/01/02 12:06:43;;;;;;;16.88;4.72;;;;;;;;;;6120471;23;20097;-91
2022/01/02 12:09:34;;;;;;;7.00;3.78;;;11.60;99.90;;;;;;6099927;23;20010;-88
2022/01/02 12:12:07;;;;;;;7.03;3.75;;;;;;;;;;6075581;23;20077;-92
2022/01/02 12:14:51;;;;;;;13.75;3.30;;;;;;;;;;6121724;23;20054;-90
2022/01/02 12:17:23;;;;;;;13.85;4.28;;;;;;;;;;6125155;23;20522;-92
2022/01/02 12:19:59;;;;;;;10.75;5.07;;;;;;;;;;6126673;23;20499;-91
2022/01/02 12:22:38;;;;;;;10.32;3.35;;;;;;;;;;6125857;23;20018;-88
2022/01/02 12:25:15;;;;;;;8.88;4.05;;;11.40;99.90;;;;;;6100190;23;20021;-88
2022/01/02 12:27:49;;;;;;;9.40;3.22;;;11.40;99.90;;;;;;6076397;23;20022;-88
2022/01/02 12:30:16;;;;;;;11.35;4.25;;;;;;;;;;6100294;23;20014;-87
2022/01/02 12:32:44;;;;;;;14.82;5.28;;;11.40;99.90;;;;;;6191617;23;20073;-87
2022/01/02 12:35:10;;;;;;;8.55;4.45;;;;;;;;;;6245788;23;20012;-88
2022/01/02 12:37:36;;;;;;;8.30;2.85;;;;;;;;;;6195466;23;20094;-88
2022/01/02 12:40:04;;;;;;;14.55;2.97;;;;;;;;;;6221194;23;20020;-87
2022/01/02 12:42:30;;;;;;;12.63;3.70;;;;;;;;;;6195817;23;20015;-88
2022/01/02 12:45:03;;;;;;;11.23;4.32;;;;;;;;;;6196983;23;20024;-88
2022/01/02 12:47:29;;;;;;;9.82;3.45;;;;;;;;;;6222230;23;20440;-87
2022/01/02 12:49:56;;;;;;;11.18;3.00;;;;;;;;;;6196540;23;20020;-91
2022/01/02 12:52:23;;;;;;;19.10;3.50;;;;;;;;;;6248390;23;20023;-89
2022/01/02 12:54:50;;;;;;;10.13;3.08;;;;;;;;;;6220724;23;20016;-88
2022/01/02 12:57:17;;;;;;;8.50;2.97;;;;;;;;;;6221411;23;20023;-89
2022/01/02 12:59:47;;;;;;;11.55;2.35;;;;;;;;;;6220785;23;20346;-91
2022/01/02 13:02:13;;;;;;;11.32;2.88;;;;;;;;;;6221544;23;20069;-88
2022/01/02 13:04:44;;;;;;;8.40;3.08;;;;;;;;;;6220855;23;20091;-91
2022/01/02 13:07:18;;;;;;;15.57;3.20;;;;;;;;;;6248087;23;20015;-90
2022/01/02 13:09:44;;;;;;;;;;;;;;;;;;6195843;23;20016;-89
2022/01/02 13:12:17;;;;;;;10.43;2.75;;;;;;;;;;6220330;23;19922;-89
2022/01/02 13:14:43;;;;;;;8.82;2.67;;;;;;;;;;6220671;23;20013;-88
2022/01/02 13:17:11;;;;;;;8.32;2.50;;;;;;;;;;6220394;23;20520;-90
2022/01/02 13:19:38;;;;;;;9.77;3.10;;;;;;;;;;6219943;23;20016;-89
2022/01/02 13:22:07;;;;;;;5.35;2.83;;;;;;;;;;6247602;23;20016;-91
2022/01/02 13:24:34;;;;;;;9.93;2.20;;;;;;;;;;6195781;22;20138;-90
2022/01/02 13:27:03;;;;;;;10.38;2.42;;;;;;;;;;6221798;23;20020;-88
2022/01/02 13:29:29;;;;;;;9.27;3.15;;;;;;;;;;6196066;23;20066;-88
2022/01/02 13:31:56;;;;;;;7.45;2.10;;;;;;;;;;6220902;23;20020;-88
2022/01/02 13:34:30;;;;;;;12.38;2.88;;;;;;;;;;6196376;23;20050;-91
2022/01/02 13:37:00;;;;;;;;;;;11.00;99.90;;;;;;6222188;23;20476;-90
2022/01/02 13:39:48;;;;;;;14.00;2.45;;;;;;;;;;6195925;23;19923;-89
2022/01/02 13:42:16;;;;;;;11.88;3.67;;;;;;;;;;6221262;23;20027;-89
2022/01/02 13:44:42;;;;;;;12.35;2.78;;;;;;;;;;6195884;23;20016;-90
2022/01/02 13:47:09;;;;;;;13.40;3.08;;;;;;;;;;6196173;23;20016;-93
2022/01/02 13:49:41;;;;;;;9.00;2.70;;;;;;;;;;6196685;23;20430;-91
2022/01/02 13:52:07;;;;;;;8.55;2.33;;;;;;;;;;6195904;23;20471;-92
2022/01/02 13:54:33;;;;;;;12.95;3.03;;;;;;;;;;6195870;23;20489;-91
2022/01/02 13:56:59;;;;;;;16.65;2.90;;;;;;;;;;6195793;23;20058;-89
2022/01/02 13:59:26;;;;;;;10.73;2.30;;;;;;;;;;6195576;23;20058;-89
2022/01/02 14:01:52;;;;;;;7.82;2.40;;;;;;;;;;6195454;23;20030;-90
2022/01/02 14:04:20;;;;;;;10.93;2.85;;;;;;;;;;6195880;23;20445;-90
2022/01/02 14:06:46;;;;;;;9.73;2.60;;;;;;;;;;6195850;23;20050;-91
2022/01/02 14:09:15;;;;;;;7.20;1.92;;;10.90;99.90;;;;;;6220578;23;20027;-92
2022/01/02 14:11:41;;;;;;;16.52;3.35;;;;;;;;;;6221006;23;20024;-93
2022/01/02 14:14:16;;;;;;;10.80;3.20;;;;;;;;;;6195183;23;20050;-92
2022/01/02 14:19:27;;;;;;;9.77;2.72;;;;;;;;;;6222038;23;20346;-93
2022/01/02 14:21:53;;;;;;;6.32;2.00;;;;;;;;;;6197912;23;20024;-92
2022/01/02 14:24:19;;;;;;;15.18;2.55;;;;;;;;;;6197927;22;20027;-92
2022/01/02 14:26:46;;;;;;;9.60;2.15;;;10.70;99.90;;;;;;6197570;23;20099;-91
2022/01/02 14:29:12;;;;;;;8.70;2.90;;;;;;;;;;6197284;23;20095;-91
2022/01/02 14:31:38;;;;;;;15.80;2.97;;;;;;;;;;6197838;23;20020;-92
2022/01/02 14:34:04;;;;;;;11.38;3.38;;;;;;;;;;6222448;23;20039;-91
2022/01/02 14:36:30;;;;;;;13.35;2.80;;;;;;;;;;6222304;23;20102;-92
2022/01/02 14:38:56;;;;;;;9.68;1.98;;;;;;;;;;6197543;23;20020;-91
2022/01/02 14:41:23;;;;;;;11.23;2.92;;;;;;;;;;6223243;23;20103;-89
2022/01/02 14:43:50;;;;;;;8.27;2.25;;;;;;;;;;6197478;23;20055;-90